首页
METAR-TAF:

METAR-TAF

机场 :

扎波羅熱國際機場

扎波罗热, 乌克兰

纬度: 47-52-02N, 经度: 035-18-59E, 海拔: 114米

当前天气观测

该预报发布于20分钟前的16:00 UTC
风速4节,风向北转东北
温度 12°C
湿度 58%
气压 1018 hPa
能见度10公里或以上
1500米以下无云,无积雨云

METAR: UKDE 231600Z 03002MPS CAVOK 12/04 Q1018 R02R/////// NOSIG

时间: 19:20 (16:20 UTC)

预报

该预报发布于2小时和18分钟前的14:02 UTC
预报有效从23日的 15点(UTC)到 23日的 24点(UTC)
风速6节,风向北转东北
能见度10公里或以上
散云层高于3000英尺
成为
从 23日的 21点(UTC)到 23日的 23点(UTC)
风速6节,风向东转东北

TAF: UKDE 231402Z 2315/2324 03003MPS 9999 SCT030 BECMG 2321/2323 06003MPS

超过4000个机场的气象观测和天气预报(METAR&TAF报告)。

可查询的气象台以黄色和红色小点在地图上表示。

将鼠标移到小点上方,可查看气象台名称。

然后点击查看天气观测和预报。

如需切换地图:点击带黑十字的绿色按钮放大地图;点击带横线的绿色按钮缩小地图;或者点击绿色箭头查看邻近地区的地图。


METAR-TAF: